Time;durP1;ratioP1;P1;durP2;ratioP2;P2;SDS_P1;SDS_P2;PMS_P1;PMS_P2;Temp;Humidity;BMP_temperature;BMP_pressure;BME280_temperature;BME280_humidity;BME280_pressure;Samples;Min_cycle;Max_cycle;Signal;HPM_P1;HPM_P2
2022/10/03 00:02:04;;;;;;;28.33;6.03;;;;;;;-146.58;100.00;69501.63;4991340;28;20085;-63
2022/10/03 00:04:29;;;;;;;15.80;5.95;;;;;;;-146.58;100.00;69501.63;4992934;28;20034;-63
2022/10/03 00:07:31;;;;;;;79.68;11.35;;;;;;;-146.58;100.00;69501.63;4990849;28;20138;-63
2022/10/03 00:10:33;;;;;;;20.92;7.07;;;;;;;-146.58;100.00;69501.63;4992667;28;20520;-63
2022/10/03 00:13:36;;;;;;;40.67;6.50;;;;;;;-146.58;100.00;69501.63;4971112;28;20125;-63
2022/10/03 00:16:10;;;;;;;19.92;6.30;;;;;;;-146.58;100.00;69501.63;4978487;28;20046;-64
2022/10/03 00:18:44;;;;;;;12.23;5.68;;;;;;;-146.58;100.00;69501.63;4992997;28;20490;-64
2022/10/03 00:21:41;;;;;;;28.35;6.45;;;;;;;-146.58;100.00;69501.63;4989893;28;20054;-64
2022/10/03 00:24:15;;;;;;;10.52;4.75;;;;;;;-146.58;100.00;69501.63;4992005;28;20054;-64
2022/10/03 00:26:51;;;;;;;19.75;7.90;;;;;;;-146.58;100.00;69501.63;4981983;28;20134;-64
2022/10/03 00:29:41;;;;;;;24.40;7.72;;;;;;;-146.58;100.00;69501.63;4992203;28;20037;-64
2022/10/03 00:32:30;;;;;;;19.25;6.68;;;;;;;-146.58;100.00;69501.63;4989207;28;20125;-64
2022/10/03 00:35:01;;;;;;;23.20;7.90;;;;;;;-146.58;100.00;69501.63;4992002;28;20159;-64
2022/10/03 00:37:43;;;;;;;15.88;5.53;;;;;;;-146.58;100.00;69501.63;4990893;28;20049;-64
2022/10/03 00:40:27;;;;;;;19.33;5.55;;;;;;;-146.58;100.00;69501.63;4991412;28;20026;-64
2022/10/03 00:43:21;;;;;;;22.50;6.72;;;;;;;-146.58;100.00;69501.63;4990252;28;20053;-64
2022/10/03 00:46:15;;;;;;;12.63;5.32;;;;;;;-146.58;100.00;69501.63;4992496;28;20050;-64
2022/10/03 00:48:59;;;;;;;16.85;5.63;;;;;;;-146.58;100.00;69501.63;4990722;28;20049;-64
2022/10/03 00:51:30;;;;;;;24.48;7.35;;;;;;;-146.58;100.00;69501.63;4991231;28;20069;-64
2022/10/03 00:54:14;;;;;;;11.50;5.25;;;;;;;-146.58;100.00;69501.63;4990553;28;20073;-65
2022/10/03 00:56:48;;;;;;;20.52;7.97;;;;;;;-146.58;100.00;69501.63;4970794;28;20029;-65
2022/10/03 00:59:47;;;;;;;16.85;5.60;;;;;;;-146.58;100.00;69501.63;4972321;28;20022;-65
2022/10/03 01:02:50;;;;;;;19.00;7.57;;;;;;;-146.58;100.00;69501.63;4971059;28;20105;-65
2022/10/03 01:05:30;;;;;;;25.67;9.55;;;;;;;-146.58;100.00;69501.63;4972161;28;20054;-65
2022/10/03 01:08:29;;;;;;;15.57;7.18;;;;;;;-146.58;100.00;69501.63;4981659;28;20050;-64
2022/10/03 01:11:11;;;;;;;25.63;8.43;;;;;;;-146.58;100.00;69501.63;4991669;28;20041;-60
2022/10/03 01:14:01;;;;;;;22.23;6.93;;;;;;;-146.58;100.00;69501.63;4990260;28;20038;-60
2022/10/03 01:16:36;;;;;;;21.23;6.43;;;;;;;-146.58;100.00;69501.63;4991729;28;20034;-61
2022/10/03 01:19:21;;;;;;;20.15;6.70;;;;;;;-146.58;100.00;69501.63;4970834;28;20054;-60
2022/10/03 01:22:19;;;;;;;26.35;7.47;;;;;;;-146.58;100.00;69501.63;4973394;28;20089;-62
2022/10/03 01:25:01;;;;;;;16.95;8.57;;;;;;;-146.58;100.00;69501.63;4990923;28;20022;-62
2022/10/03 01:30:49;;;;;;;;;;;;;;;-146.58;100.00;69501.63;4972973;28;20045;-62
2022/10/03 01:33:29;;;;;;;22.08;6.00;;;;;;;-146.58;100.00;69501.63;4971568;28;19941;-62
2022/10/03 01:36:07;;;;;;;18.48;7.15;;;;;;;-146.58;100.00;69501.63;4972402;28;20023;-60
2022/10/03 01:38:59;;;;;;;21.85;7.70;;;;;;;-146.58;100.00;69501.63;4985143;28;20042;-63
2022/10/03 01:41:40;;;;;;;23.45;5.80;;;;;;;-146.58;100.00;69501.63;4971515;28;20045;-63
2022/10/03 01:44:25;;;;;;;23.77;6.00;;;;;;;-146.58;100.00;69501.63;4974567;28;20129;-63
2022/10/03 01:47:15;;;;;;;20.38;6.65;;;;;;;-146.58;100.00;69501.63;4990217;28;20105;-63
2022/10/03 01:49:55;;;;;;;15.55;5.10;;;;;;;-146.58;100.00;69501.63;4991406;28;20026;-63
2022/10/03 01:52:36;;;;;;;12.10;5.25;;;;;;;-146.58;100.00;69501.63;4989495;28;20099;-60
2022/10/03 01:55:04;;;;;;;12.02;5.47;;;;;;;-146.58;100.00;69501.63;4991378;28;20105;-60
2022/10/03 01:57:52;;;;;;;18.47;5.23;;;;;;;-146.58;100.00;69501.63;4989102;28;20498;-63
2022/10/03 02:00:24;;;;;;;21.08;6.70;;;;;;;-146.58;100.00;69501.63;4991045;28;20037;-62
2022/10/03 02:03:04;;;;;;;19.63;6.78;;;;;;;-146.58;100.00;69501.63;4989739;28;20053;-62
2022/10/03 02:05:48;;;;;;;8.73;4.75;;;;;;;-146.58;100.00;69501.63;4990978;28;20065;-64
2022/10/03 02:08:15;;;;;;;17.20;6.50;;;;;;;-146.58;100.00;69501.63;4989533;28;20038;-64
2022/10/03 02:10:59;;;;;;;18.17;5.88;;;;;;;-146.58;100.00;69501.63;4990802;28;20481;-64
2022/10/03 02:13:48;;;;;;;11.85;4.75;;;;;;;-146.58;100.00;69501.63;4989584;28;20525;-64
2022/10/03 02:16:35;;;;;;;8.70;3.72;;;;;;;-146.58;100.00;69501.63;4990961;28;20076;-64
2022/10/03 02:19:20;;;;;;;18.13;5.13;;;;;;;-146.58;100.00;69501.63;4984668;28;20046;-63
2022/10/03 02:21:52;;;;;;;46.15;7.53;;;;;;;-146.58;100.00;69501.63;4989910;28;20028;-63
2022/10/03 02:24:23;;;;;;;16.30;6.15;;;;;;;-146.58;100.00;69501.63;4991305;28;20022;-63
2022/10/03 02:26:57;;;;;;;13.13;4.63;;;;;;;-146.58;100.00;69501.63;4989833;28;20022;-63
2022/10/03 02:29:37;;;;;;;14.50;5.07;;;;;;;-146.58;100.00;69501.63;4991123;28;20088;-61
2022/10/03 02:32:20;;;;;;;55.28;7.95;;;;;;;-146.58;100.00;69501.63;4989030;28;20440;-61
2022/10/03 02:35:00;;;;;;;29.25;4.88;;;;;;;-146.58;100.00;69501.63;4990971;28;20030;-61
2022/10/03 02:38:04;;;;;;;31.58;5.30;;;;;;;7.18;100.00;162442.72;4989746;28;20038;-61
2022/10/03 02:41:06;;;;;;;37.22;4.35;;;;;;;7.16;100.00;162437.31;4991070;28;20405;-61
2022/10/03 02:43:51;;;;;;;82.55;8.23;;;;;;;7.15;100.00;162434.63;4990645;28;20042;-61
2022/10/03 02:46:49;;;;;;;50.80;6.45;;;;;;;7.15;100.00;162434.63;4994315;28;20462;-61
2022/10/03 02:50:08;;;;;;;59.05;6.05;;;;;;;7.17;100.00;162440.03;4985147;28;20498;-61
2022/10/03 02:52:52;;;;;;;;;;;;;;;7.14;100.00;162431.94;4990350;28;20534;-62
2022/10/03 02:55:54;;;;;;;19.30;4.07;;;;;;;7.13;100.00;162429.22;4993921;28;19914;-62
2022/10/03 02:58:45;;;;;;;19.85;4.88;;;;;;;7.11;100.00;162423.88;4992646;28;20054;-63
2022/10/03 03:01:43;;;;;;;53.10;8.13;;;;;;;7.08;100.00;162415.78;4994061;28;20030;-63
2022/10/03 03:04:27;;;;;;;;;;;;;;;7.03;100.00;162402.31;4992431;28;20498;-63
2022/10/03 03:06:58;;;;;;;63.55;6.47;;;;;;;6.98;100.00;162391.53;4994095;28;19910;-62
2022/10/03 03:10:07;;;;;;;47.05;7.97;;;;;;;6.98;100.00;162391.53;4991661;28;20046;-62
2022/10/03 03:13:17;;;;;;;17.45;5.75;;;;;;;7.01;100.00;162396.91;4992552;28;20037;-63
2022/10/03 03:16:04;;;;;;;13.02;5.57;;;;;;;7.01;100.00;162396.91;4993442;28;20027;-63
2022/10/03 03:18:45;;;;;;;41.60;9.85;;;;;;;7.03;100.00;162402.31;4992223;28;20066;-63
2022/10/03 03:21:14;;;;;;;31.50;7.95;;;;;;;7.04;100.00;162406.34;4993397;28;20030;-63
2022/10/03 03:23:50;;;;;;;29.88;8.32;;;;;;;7.07;100.00;162413.06;4992367;28;20046;-63
2022/10/03 03:26:18;;;;;;;11.80;4.82;;;;;;;7.04;100.00;162406.34;4993203;28;20089;-63
2022/10/03 03:28:59;;;;;;;29.60;7.00;;;;;;;7.07;100.00;162413.06;4992031;28;20053;-62
2022/10/03 03:31:37;;;;;;;44.20;7.40;;;;;;;7.05;100.00;162409.03;4993327;28;20410;-62
2022/10/03 03:34:21;;;;;;;112.05;10.90;;;;;;;7.02;100.00;162399.63;4991555;28;20043;-64
2022/10/03 03:36:58;;;;;;;11.90;5.85;;;;;;;6.99;100.00;162394.22;4993736;28;20117;-64
2022/10/03 03:39:37;;;;;;;64.00;7.53;;;;;;;6.97;100.00;162388.81;4991032;28;20050;-63
2022/10/03 03:42:23;;;;;;;44.90;6.65;;;;;;;6.99;100.00;162392.91;4993220;28;20030;-63
2022/10/03 03:45:06;;;;;;;73.07;8.13;;;;;;;6.93;100.00;162378.06;4991956;28;20034;-63
2022/10/03 03:47:53;;;;;;;94.30;8.75;;;;;;;6.89;100.00;162367.28;4991472;28;20049;-63
2022/10/03 03:50:44;;;;;;;114.72;8.70;;;;;;;6.81;100.00;162345.78;4992893;28;20022;-63
2022/10/03 03:53:42;;;;;;;33.00;8.25;;;;;;;6.77;100.00;162334.97;4991148;28;20482;-62
2022/10/03 03:56:23;;;;;;;28.35;5.75;;;;;;;6.75;100.00;162330.94;4991718;28;20097;-61
2022/10/03 03:59:12;;;;;;;27.65;6.28;;;;;;;6.78;100.00;162337.66;4991146;28;20573;-59
2022/10/03 04:02:04;;;;;;;173.77;13.82;;;;;;;6.84;100.00;162353.81;4993200;28;20104;-62
2022/10/03 04:04:32;;;;;;;45.83;7.85;;;;;;;6.82;100.00;162348.41;4991669;28;20097;-62
2022/10/03 04:07:25;;;;;;;68.93;7.28;;;;;;;6.84;100.00;162353.81;4993071;28;20072;-62
2022/10/03 04:10:16;;;;;;;79.15;9.00;;;;;;;6.84;100.00;162353.81;4991482;28;20038;-62
2022/10/03 04:13:01;;;;;;;121.40;12.82;;;;;;;6.82;100.00;162348.41;4990988;28;20045;-61
2022/10/03 04:15:55;;;;;;;94.80;10.35;;;;;;;6.73;100.00;162325.53;4992403;28;20076;-60
2022/10/03 04:18:57;;;;;;;149.32;11.25;;;;;;;6.71;100.00;162320.16;4990913;28;20070;-60
2022/10/03 04:21:40;;;;;;;98.18;8.93;;;;;;;6.74;100.00;162328.25;4991978;28;20553;-61
2022/10/03 04:24:36;;;;;;;197.82;13.02;;;;;;;6.68;100.00;162312.09;4971342;28;20411;-61
2022/10/03 04:27:23;;;;;;;74.38;8.35;;;;;;;6.57;100.00;162283.81;4982902;28;20030;-60
2022/10/03 04:30:10;;;;;;;76.22;7.75;;;;;;;6.53;100.00;162271.72;4971976;28;20049;-61
2022/10/03 04:33:00;;;;;;;148.60;15.35;;;;;;;6.48;100.00;162259.59;4971414;28;20102;-61
2022/10/03 04:35:51;;;;;;;70.13;6.78;;;;;;;6.46;100.00;162254.19;4972520;28;20502;-62
2022/10/03 04:38:38;;;;;;;43.47;4.72;;;;;;;6.39;100.00;162235.34;4966063;28;20137;-61
2022/10/03 04:41:35;;;;;;;68.85;7.22;;;;;;;6.28;100.00;162208.44;4972717;28;20475;-61
2022/10/03 04:44:11;;;;;;;74.90;9.15;;;;;;;6.27;100.00;162205.75;4971886;28;20127;-61
2022/10/03 04:46:54;;;;;;;53.13;7.78;;;;;;;6.26;100.00;162203.06;4971414;28;20046;-61
2022/10/03 04:49:40;;;;;;;72.18;7.97;;;;;;;6.28;100.00;162208.44;4972824;28;20517;-61
2022/10/03 04:52:20;;;;;;;254.63;18.25;;;;;;;6.27;100.00;162204.38;4971340;28;20042;-61
2022/10/03 04:54:55;;;;;;;216.50;17.63;;;;;;;6.26;100.00;162203.06;4972785;28;20031;-61
2022/10/03 04:57:56;;;;;;;141.70;11.57;;;;;;;6.32;100.00;162219.19;4971227;28;20039;-61
2022/10/03 05:00:45;;;;;;;51.42;6.43;;;;;;;6.25;100.00;162200.34;4968479;28;20043;-61
2022/10/03 05:03:40;;;;;;;;;;;;;;;6.16;100.00;162176.13;4971651;28;20522;-61
2022/10/03 05:06:46;;;;;;;7.28;4.60;;;;;;;6.11;100.00;162162.66;4963764;28;20408;-61
2022/10/03 05:09:33;;;;;;;12.60;6.43;;;;;;;6.10;100.00;162159.97;4951395;28;20055;-61
2022/10/03 05:12:13;;;;;;;12.30;5.60;;;;;;;6.11;100.00;162162.66;4952042;28;20109;-61
2022/10/03 05:15:06;;;;;;;235.05;15.63;;;;;;;6.10;100.00;162159.97;4953226;28;20483;-61
2022/10/03 05:18:13;;;;;;;162.32;12.40;;;;;;;6.06;100.00;162150.56;4951671;28;20047;-61
2022/10/03 05:21:19;;;;;;;62.63;5.50;;;;;;;5.95;100.00;162122.25;4953485;28;20027;-61
2022/10/03 05:23:49;;;;;;;10.48;3.55;;;;;;;5.77;100.00;162075.16;4939386;28;20039;-61
2022/10/03 05:26:44;;;;;;;124.85;8.57;;;;;;;5.81;100.00;162085.88;4953118;28;20494;-61
2022/10/03 05:29:30;;;;;;;153.20;9.30;;;;;;;5.78;100.00;162076.47;4951708;29;20043;-61
2022/10/03 05:32:29;;;;;;;35.22;4.90;;;;;;;5.74;100.00;162065.72;4951369;28;20134;-61
2022/10/03 05:35:03;;;;;;;131.13;8.30;;;;;;;5.72;100.00;162063.03;4952971;28;20078;-61
2022/10/03 05:37:36;;;;;;;10.25;4.30;;;;;;;5.71;100.00;162060.34;4961917;28;20058;-60
2022/10/03 05:40:12;;;;;;;113.47;10.20;;;;;;;5.72;100.00;162063.03;4957993;28;20495;-58
2022/10/03 05:42:54;;;;;;;29.60;5.15;;;;;;;5.76;100.00;162071.13;4960167;28;20053;-57
2022/10/03 05:45:30;;;;;;;41.42;7.28;;;;;;;5.80;100.00;162081.88;4971468;28;20494;-58
2022/10/03 05:48:32;;;;;;;25.50;5.43;;;;;;;5.86;100.00;162098.00;4970963;28;20043;-57
2022/10/03 05:51:22;;;;;;;49.35;6.80;;;;;;;5.89;100.00;162106.09;4980872;28;20031;-58
2022/10/03 05:54:26;;;;;;;93.53;9.38;;;;;;;5.90;100.00;162108.81;4986162;28;20413;-58
2022/10/03 05:57:14;;;;;;;88.40;10.45;;;;;;;6.00;100.00;162135.72;4983512;28;20112;-58
2022/10/03 06:00:07;;;;;;;47.58;12.00;;;;;;;6.10;100.00;162159.97;4990039;28;20044;-58
2022/10/03 06:02:54;;;;;;;21.15;8.75;;;;;;;6.21;100.00;162189.59;5001995;28;20046;-57
2022/10/03 06:05:40;;;;;;;17.65;7.03;;;;;;;6.30;100.00;162213.78;4985771;28;20038;-58
2022/10/03 06:08:28;;;;;;;22.02;7.53;;;;;;;6.34;100.00;162224.59;4989038;28;20112;-58
2022/10/03 06:11:20;;;;;;;16.33;8.25;;;;;;;6.37;100.00;162230.00;4990727;28;20053;-57
2022/10/03 06:14:23;;;;;;;33.70;10.43;;;;;;;6.44;100.00;162248.84;4988419;28;20042;-58
2022/10/03 06:17:25;;;;;;;27.42;10.23;;;;;;;6.55;100.00;162277.09;4987587;28;20122;-58
2022/10/03 06:20:24;;;;;;;19.70;9.57;;;;;;;6.63;100.00;162299.97;4992846;28;20105;-57
2022/10/03 06:23:17;;;;;;;20.70;12.23;;;;;;;6.71;100.00;162318.81;4992526;28;20042;-58
2022/10/03 06:26:11;;;;;;;22.55;8.70;;;;;;;6.79;100.00;162340.38;4994586;28;20029;-58
2022/10/03 06:29:14;;;;;;;51.15;10.93;;;;;;;6.87;100.00;162360.53;4983111;28;20042;-57
2022/10/03 06:31:54;;;;;;;35.03;12.75;;;;;;;7.01;100.00;162396.91;4990077;28;20057;-58
2022/10/03 06:34:53;;;;;;;29.58;13.10;;;;;;;7.15;100.00;162434.63;4991957;28;20038;-58
2022/10/03 06:37:24;;;;;;;28.17;13.20;;;;;;;7.32;100.00;162477.75;4982017;28;20132;-58
2022/10/03 06:40:23;;;;;;;34.53;14.93;;;;;;;7.47;100.00;162518.16;4992114;28;20111;-58
2022/10/03 06:43:07;;;;;;;34.28;13.00;;;;;;;7.61;100.00;162555.88;4990688;28;20089;-58
2022/10/03 06:46:00;;;;;;;23.35;12.02;;;;;;;7.72;100.00;162584.16;4993240;28;20030;-58
2022/10/03 06:49:11;;;;;;;19.05;12.82;;;;;;;7.83;100.00;162612.44;4991798;28;20049;-58
2022/10/03 06:51:48;;;;;;;28.80;16.67;;;;;;;8.00;100.00;162655.59;4989251;28;20040;-58
2022/10/03 06:54:41;;;;;;;29.67;13.52;;;;;;;8.12;100.00;162686.59;4993763;28;20026;-58
2022/10/03 06:57:43;;;;;;;29.00;15.10;;;;;;;8.24;100.00;162720.25;4991676;28;20644;-58
2022/10/03 07:00:14;;;;;;;26.55;13.45;;;;;;;8.37;100.00;162752.63;4992646;28;20022;-58
2022/10/03 07:03:13;;;;;;;31.00;15.00;;;;;;;8.62;100.00;162818.72;4992142;28;20042;-58
2022/10/03 07:06:02;;;;;;;32.90;14.95;;;;;;;8.79;100.00;162863.19;4992543;28;20034;-58
2022/10/03 07:08:34;;;;;;;20.85;13.07;;;;;;;8.97;100.00;162909.06;4991449;28;20050;-58
2022/10/03 07:11:14;;;;;;;25.38;14.52;;;;;;;9.11;100.00;162946.81;4993458;28;20042;-58
2022/10/03 07:14:17;;;;;;;29.63;12.57;;;;;;;9.24;100.00;162979.16;4991185;28;20065;-58
2022/10/03 07:17:16;;;;;;;31.52;14.52;;;;;;;9.42;100.00;163026.34;4986381;28;20089;-58
2022/10/03 07:20:25;;;;;;;29.58;13.32;;;;;;;9.55;100.00;163060.09;4993352;28;20109;-57
2022/10/03 07:23:11;;;;;;;24.38;13.40;;;;;;;9.69;100.00;163099.19;4976098;28;20046;-58
2022/10/03 07:26:07;;;;;;;23.83;9.85;;;;;;;9.82;100.00;163131.59;4993128;28;20023;-58
2022/10/03 07:28:57;;;;;;;17.58;10.63;;;;;;;9.97;100.00;163170.69;4989318;28;20050;-59
2022/10/03 07:31:31;;;;;;;18.40;10.90;;;;;;;10.09;100.00;163203.06;4997770;28;20053;-59
2022/10/03 07:33:56;;;;;;;23.85;11.77;;;;;;;10.17;100.00;163223.34;4984823;28;20050;-58
2022/10/03 07:39:58;;;;;;;14.45;9.27;;;;;;;10.48;100.00;163305.69;4970341;28;20681;-58
2022/10/03 07:42:55;;;;;;;22.25;10.65;;;;;;;10.66;100.00;163351.59;4972138;28;20129;-59
2022/10/03 07:45:40;;;;;;;18.77;8.38;;;;;;;10.89;100.00;163411.00;4989972;28;20022;-58
2022/10/03 07:48:05;;;;;;;17.95;10.07;;;;;;;10.93;100.00;163421.78;4987075;28;20049;-58
2022/10/03 07:50:50;;;;;;;18.52;9.25;;;;;;;-146.58;100.00;69501.63;4992772;28;20109;-58
2022/10/03 07:54:03;;;;;;;19.77;7.93;;;;;;;-146.58;100.00;69501.63;4990407;28;20038;-58
2022/10/03 07:56:54;;;;;;;13.93;7.28;;;;;;;11.68;100.00;162952.16;4961125;28;20058;-58
2022/10/03 07:59:57;;;;;;;15.30;8.73;;;;;;;11.82;100.00;160572.06;4990433;28;20043;-58
2022/10/03 08:02:40;;;;;;;13.27;6.68;;;;;;;12.06;100.00;156809.84;4990057;28;20049;-56
2022/10/03 08:05:30;;;;;;;15.45;6.90;;;;;;;12.34;100.00;153525.00;4991861;28;20033;-56
2022/10/03 08:08:08;;;;;;;21.50;5.88;;;;;;;-146.58;100.00;69501.63;4987003;28;20057;-56
2022/10/03 08:10:47;;;;;;;10.60;6.30;;;;;;;-146.58;100.00;69501.63;4990789;28;20037;-56
2022/10/03 08:13:48;;;;;;;17.25;5.30;;;;;;;-146.58;100.00;69501.63;4990311;28;20054;-56
2022/10/03 08:16:32;;;;;;;13.32;6.88;;;;;;;-146.58;100.00;69501.63;4994160;28;20152;-56
2022/10/03 08:19:04;;;;;;;24.15;7.60;;;;;;;-146.58;100.00;69501.63;4991032;28;20054;-55
2022/10/03 08:21:42;;;;;;;15.27;5.30;;;;;;;-146.58;100.00;69501.63;4986812;28;20164;-56
2022/10/03 08:24:50;;;;;;;7.70;4.38;;;;;;;-146.58;100.00;69501.63;4989385;28;20042;-56
2022/10/03 08:27:45;;;;;;;15.23;5.35;;;;;;;-146.58;100.00;69501.63;4964032;28;20092;-56
2022/10/03 08:30:18;;;;;;;18.65;5.70;;;;;;;-146.58;100.00;69501.63;4994222;28;20026;-56
2022/10/03 08:33:10;;;;;;;11.27;5.57;;;;;;;-146.58;100.00;69501.63;4989670;28;20050;-56
2022/10/03 08:36:13;;;;;;;13.13;4.07;;;;;;;-146.58;100.00;69501.63;4990660;28;20022;-56
2022/10/03 08:39:00;;;;;;;17.13;5.55;;;;;;;-146.58;100.00;69501.63;4989990;28;20053;-56
2022/10/03 08:41:34;;;;;;;15.48;4.90;;;;;;;-146.58;100.00;69501.63;4989174;28;20515;-56
2022/10/03 08:44:15;;;;;;;12.63;5.22;;;;;;;-146.58;100.00;69501.63;4989759;28;20054;-56
2022/10/03 08:47:07;;;;;;;17.88;5.45;;;;;;;-146.58;100.00;69501.63;4989333;28;20454;-56
2022/10/03 08:49:50;;;;;;;10.18;3.70;;;;;;;-146.58;100.00;69501.63;4991790;28;20134;-56
2022/10/03 08:52:55;;;;;;;17.50;6.45;;;;;;;-146.58;100.00;69501.63;4975158;28;20100;-56
2022/10/03 08:55:41;;;;;;;9.27;3.20;;;;;;;-146.58;100.00;69501.63;4984165;28;20632;-57
2022/10/03 08:58:37;;;;;;;12.93;5.00;;;;;;;-146.58;100.00;69501.63;4996754;28;20461;-58
2022/10/03 09:01:35;;;;;;;9.07;3.97;;;;;;;-146.58;100.00;69501.63;4986232;28;20037;-57
2022/10/03 09:04:28;;;;;;;7.30;2.83;;;;;;;-146.58;100.00;69501.63;4989476;28;20051;-56
2022/10/03 09:07:24;;;;;;;9.32;3.58;;;;;;;-146.58;100.00;69501.63;4989114;28;20046;-56
2022/10/03 09:10:20;;;;;;;7.90;3.78;;;;;;;-146.58;100.00;69501.63;4989837;28;20034;-57
2022/10/03 09:13:32;;;;;;;14.48;4.63;;;;;;;-146.58;100.00;69501.63;4975349;28;20073;-56
2022/10/03 09:16:21;;;;;;;8.75;4.47;;;;;;;12.34;100.00;153525.00;4983624;28;20042;-56
2022/10/03 09:19:27;;;;;;;10.25;2.80;;;;;;;17.40;100.00;165117.00;4988669;28;20092;-56
2022/10/03 09:22:19;;;;;;;10.32;4.00;;;;;;;17.87;100.00;165240.31;4983131;28;20030;-58
2022/10/03 09:24:54;;;;;;;10.18;2.75;;;;;;;18.09;100.00;165298.69;4984784;28;20018;-58
2022/10/03 09:27:38;;;;;;;8.32;3.30;;;;;;;18.30;100.00;165354.25;4986854;28;20161;-59
2022/10/03 09:30:22;;;;;;;12.73;3.92;;;;;;;18.29;100.00;165350.19;4988023;28;20058;-57
2022/10/03 09:33:12;;;;;;;17.17;3.35;;;;;;;18.36;100.00;165370.50;4983392;28;20533;-59
2022/10/03 09:35:53;;;;;;;19.00;5.25;;;;;;;18.07;100.00;165294.59;4986693;28;20026;-59
2022/10/03 09:38:44;;;;;;;12.32;3.90;;;;;;;17.99;100.00;165272.91;4986567;28;20396;-59
2022/10/03 09:41:31;;;;;;;13.05;3.35;;;;;;;17.56;100.00;165160.38;4984930;28;20089;-59
2022/10/03 09:44:23;;;;;;;12.30;3.10;;;;;;;17.43;100.00;165125.09;4983210;28;20121;-58
2022/10/03 09:47:22;;;;;;;7.65;3.22;;;;;;;17.38;100.00;165112.94;4984912;28;20058;-56
2022/10/03 09:50:35;;;;;;;6.60;2.72;;;;;;;17.54;100.00;165153.56;4986044;28;20026;-56
2022/10/03 09:53:38;;;;;;;16.23;3.47;;;;;;;17.71;100.00;165198.31;4989526;28;20617;-57
2022/10/03 09:56:43;;;;;;;7.95;2.00;;;;;;;17.93;100.00;165256.59;4990941;28;20596;-57
2022/10/03 09:59:27;;;;;;;7.35;2.28;;;;;;;18.12;100.00;165305.47;4983399;28;20043;-59
2022/10/03 10:02:35;;;;;;;10.07;2.50;;;;;;;18.15;100.00;165313.56;4986784;28;20038;-58
2022/10/03 10:05:39;;;;;;;10.00;2.28;;;;;;;18.15;100.00;165314.97;4993964;28;20088;-58
2022/10/03 10:08:26;;;;;;;8.27;1.70;;;;;;;18.03;100.00;165282.38;4992792;28;20042;-58
2022/10/03 10:11:07;;;;;;;8.98;2.55;;;;;;;17.87;100.00;165241.66;4994759;28;20057;-58
2022/10/03 10:13:51;;;;;;;7.75;2.78;;;;;;;17.75;100.00;165210.53;4993125;28;20044;-58
2022/10/03 10:16:35;;;;;;;8.70;3.88;;;;;;;17.65;100.00;165183.41;4975467;28;20057;-59
2022/10/03 10:19:25;;;;;;;12.10;2.85;;;;;;;17.60;100.00;165169.84;4990491;28;20494;-59
2022/10/03 10:22:30;;;;;;;8.50;3.05;;;;;;;17.15;100.00;165050.59;4990036;28;20049;-59
2022/10/03 10:25:16;;;;;;;12.35;3.17;;;;;;;17.47;100.00;165135.97;4994114;28;20030;-58
2022/10/03 10:27:41;;;;;;;10.88;2.58;;;;;;;17.61;100.00;165172.53;4990877;28;20452;-58
2022/10/03 10:30:07;;;;;;;8.32;3.70;;;;;;;17.57;100.00;165161.72;4993909;28;20056;-59
2022/10/03 10:33:00;;;;;;;15.85;5.82;;;;;;;17.47;100.00;165135.97;4993428;28;20137;-59
2022/10/03 10:35:45;;;;;;;5.82;2.17;;;;;;;17.18;100.00;165058.69;4992084;28;20474;-58
2022/10/03 10:38:25;;;;;;;10.02;2.17;;;;;;;17.17;100.00;165055.97;4993131;28;20116;-58
2022/10/03 10:41:37;;;;;;;7.97;3.08;;;;;;;17.19;100.00;165061.41;4993448;28;20536;-58
2022/10/03 10:44:41;;;;;;;11.43;2.60;;;;;;;17.35;100.00;165104.78;4989136;28;20052;-59
2022/10/03 10:47:33;;;;;;;10.27;1.88;;;;;;;17.43;100.00;165126.47;4962376;28;20609;-58
2022/10/03 10:50:41;;;;;;;8.07;2.60;;;;;;;17.43;100.00;165125.09;4993504;28;20072;-58
2022/10/03 10:53:43;;;;;;;10.05;2.90;;;;;;;17.22;100.00;165069.56;4990491;28;20042;-58
2022/10/03 10:56:56;;;;;;;8.77;2.55;;;;;;;17.45;100.00;165130.53;4992303;28;20113;-59
2022/10/03 10:59:33;;;;;;;10.15;1.85;;;;;;;17.66;100.00;165186.13;4932304;29;20123;-58
2022/10/03 11:02:16;;;;;;;12.45;2.85;;;;;;;17.69;100.00;165194.22;4930440;28;20043;-58
2022/10/03 11:05:05;;;;;;;9.05;2.67;;;;;;;17.92;100.00;165253.88;4957702;28;20494;-58
2022/10/03 11:07:43;;;;;;;8.07;2.03;;;;;;;17.99;100.00;165272.91;4979183;28;20050;-58
2022/10/03 11:10:31;;;;;;;5.63;2.58;;;;;;;18.02;100.00;165281.06;4992614;28;20540;-58
2022/10/03 11:13:15;;;;;;;;;;;;;;;18.22;100.00;165332.56;4990931;28;20053;-58
2022/10/03 11:16:10;;;;;;;7.88;1.90;;;;;;;18.46;100.00;165394.94;4986470;28;20325;-58
2022/10/03 11:19:05;;;;;;;8.43;3.08;;;;;;;18.64;100.00;165442.41;4996816;28;20111;-58
2022/10/03 11:22:04;;;;;;;6.88;1.85;;;;;;;18.71;100.00;165461.38;4993620;28;20034;-58
2022/10/03 11:25:11;;;;;;;10.35;2.00;;;;;;;18.59;100.00;165428.84;4971449;28;20619;-58
2022/10/03 11:28:12;;;;;;;8.18;2.95;;;;;;;18.75;100.00;165472.25;4962898;28;20102;-58
2022/10/03 11:30:49;;;;;;;11.52;2.80;;;;;;;18.59;100.00;165428.84;4973441;28;20455;-58
2022/10/03 11:33:51;;;;;;;3.20;1.17;;;;;;;18.65;100.00;165446.44;4971904;28;20042;-58
2022/10/03 11:36:47;;;;;;;5.53;1.85;;;;;;;18.57;100.00;165424.78;4972836;28;20043;-58
2022/10/03 11:39:24;;;;;;;10.23;2.35;;;;;;;18.20;100.00;165328.50;4960686;28;20051;-58
2022/10/03 11:42:00;;;;;;;9.30;2.13;;;;;;;17.90;100.00;165248.47;4971323;28;20558;-58
2022/10/03 11:44:40;;;;;;;6.43;2.08;;;;;;;17.80;100.00;165221.34;4973252;28;20506;-58
2022/10/03 11:47:32;;;;;;;7.75;3.83;;;;;;;17.64;100.00;165180.69;4972080;28;20046;-58
2022/10/03 11:50:17;;;;;;;6.35;3.03;;;;;;;17.44;100.00;165129.19;4972279;28;20517;-58
2022/10/03 11:53:06;;;;;;;8.63;2.70;;;;;;;17.35;100.00;165104.78;4972007;28;20050;-58
2022/10/03 11:55:50;;;;;;;5.32;2.17;;;;;;;17.40;100.00;165117.00;4972576;28;20364;-58
2022/10/03 11:58:33;;;;;;;24.17;2.70;;;;;;;17.37;100.00;165110.22;4971767;28;20573;-58
2022/10/03 12:01:22;;;;;;;7.43;2.10;;;;;;;17.38;100.00;165112.94;4973401;28;20050;-58
2022/10/03 12:04:16;;;;;;;14.43;2.67;;;;;;;17.28;100.00;165085.81;4971334;28;20050;-57
2022/10/03 12:10:06;;;;;;;;;;;;;;;17.07;100.00;165031.63;4993294;28;20044;-57
2022/10/03 12:12:47;;;;;;;23.75;3.72;;;;;;;17.09;100.00;165037.00;4989965;28;19914;-58
2022/10/03 12:15:34;;;;;;;4.38;1.92;;;;;;;17.12;100.00;165043.81;4991831;28;20038;-58
2022/10/03 12:18:13;;;;;;;5.93;1.50;;;;;;;17.33;100.00;165099.34;4990921;28;20043;-57
2022/10/03 12:21:07;;;;;;;14.80;2.20;;;;;;;17.48;100.00;165137.28;4992377;28;20100;-58
2022/10/03 12:24:00;;;;;;;8.73;2.33;;;;;;;17.44;100.00;165129.19;4990856;28;20034;-58
2022/10/03 12:26:31;;;;;;;12.65;3.28;;;;;;;17.39;100.00;165115.59;4980381;28;20030;-58
2022/10/03 12:28:58;;;;;;;13.48;2.28;;;;;;;17.34;100.00;165102.06;4991137;28;20390;-58
2022/10/03 12:31:29;;;;;;;7.50;2.70;;;;;;;17.27;100.00;165083.09;4991071;28;20069;-57
2022/10/03 12:34:07;;;;;;;6.55;1.98;;;;;;;17.28;100.00;165085.81;4990666;28;20042;-57
2022/10/03 12:37:02;;;;;;;10.07;2.45;;;;;;;17.34;100.00;165100.75;4973089;28;20039;-58
2022/10/03 12:39:55;;;;;;;6.78;2.20;;;;;;;17.39;100.00;165115.59;4971223;28;20061;-58
2022/10/03 12:42:33;;;;;;;11.18;4.18;;;;;;;17.47;100.00;165135.97;4978877;28;20042;-58
2022/10/03 12:45:26;;;;;;;5.28;1.77;;;;;;;17.48;100.00;165138.69;4992097;28;20018;-58
2022/10/03 12:48:15;;;;;;;7.28;1.90;;;;;;;17.41;100.00;165121.03;4990144;28;20133;-58
2022/10/03 12:50:44;;;;;;;6.65;2.28;;;;;;;17.48;100.00;165137.28;4991409;28;20587;-57
2022/10/03 12:53:22;;;;;;;4.93;2.08;;;;;;;17.51;100.00;165145.44;4989676;28;20073;-58
2022/10/03 12:56:13;;;;;;;9.65;3.33;;;;;;;17.43;100.00;165126.47;4991225;28;20091;-58